Current Conditions
Teilweise bew├Âlkt




Pressure
1008.92 (hPa) - 29.79 (inHG)
Visibility

10.0 (km) - 6.2 (miles)
   Temperature
10  °C
50°F
6  °C
Dewpoint
76  %
 Humidity
   Wind Speed
16  km/h
9  kts
10  mph
4.5  m/s
   Wind Direction
 200°
South South
West
   Airport Data
EDDP
Location Leipzig/Halle Airport 90 km (55.94 mi)
Metar :EDDP 270920Z 20009KT 9999 FEW045 10/06 Q1009 NOSIG
Tue 27th October 10:20 am
   Raw Metar Info
Raw METAR is the most common format in the world for the transmission of observational weather data. It is highly standardized through the International Civil Aviation Organization (ICAO), which allows it to be understood throughout most of the world.
   API Info
Data Provided by
https://www.checkwx.com/weather/EDDP
   © Info
CSS/SVG/PHP scripts were developed by weather34.com for use in the weather34 template © 2015-2020

Guide Info provided by Metar-Wikipedia